sensor_id;sensor_type;location;lat;lon;timestamp;P1;durP1;ratioP1;P2;durP2;ratioP2
18125;SDS011;53956;52.442;13.284;2023-08-01T00:00:47;6.70;;;4.15;;
18125;SDS011;53956;52.442;13.284;2023-08-01T00:03:15;8.75;;;4.32;;
18125;SDS011;53956;52.442;13.284;2023-08-01T00:05:42;8.30;;;4.18;;
18125;SDS011;53956;52.442;13.284;2023-08-01T00:08:09;8.70;;;4.57;;
18125;SDS011;53956;52.442;13.284;2023-08-01T00:10:37;6.60;;;4.20;;
18125;SDS011;53956;52.442;13.284;2023-08-01T00:13:03;6.75;;;4.28;;
18125;SDS011;53956;52.442;13.284;2023-08-01T00:15:30;7.88;;;4.38;;
18125;SDS011;53956;52.442;13.284;2023-08-01T00:17:57;8.10;;;4.03;;
18125;SDS011;53956;52.442;13.284;2023-08-01T00:20:25;6.57;;;3.72;;
18125;SDS011;53956;52.442;13.284;2023-08-01T00:22:51;7.05;;;3.85;;
18125;SDS011;53956;52.442;13.284;2023-08-01T00:25:18;7.28;;;3.88;;
18125;SDS011;53956;52.442;13.284;2023-08-01T00:27:45;7.93;;;3.17;;
18125;SDS011;53956;52.442;13.284;2023-08-01T00:30:12;4.38;;;3.05;;
18125;SDS011;53956;52.442;13.284;2023-08-01T00:32:38;5.80;;;3.08;;
18125;SDS011;53956;52.442;13.284;2023-08-01T00:35:05;6.68;;;3.20;;
18125;SDS011;53956;52.442;13.284;2023-08-01T00:37:34;5.03;;;3.13;;
18125;SDS011;53956;52.442;13.284;2023-08-01T00:40:00;4.68;;;2.88;;
18125;SDS011;53956;52.442;13.284;2023-08-01T00:42:28;4.50;;;2.97;;
18125;SDS011;53956;52.442;13.284;2023-08-01T00:44:54;4.07;;;2.88;;
18125;SDS011;53956;52.442;13.284;2023-08-01T00:47:21;3.85;;;2.80;;
18125;SDS011;53956;52.442;13.284;2023-08-01T00:49:47;4.18;;;2.72;;
18125;SDS011;53956;52.442;13.284;2023-08-01T00:52:15;3.78;;;3.00;;
18125;SDS011;53956;52.442;13.284;2023-08-01T00:54:44;5.20;;;3.13;;
18125;SDS011;53956;52.442;13.284;2023-08-01T00:57:10;4.70;;;3.17;;
18125;SDS011;53956;52.442;13.284;2023-08-01T00:59:38;4.55;;;3.00;;
18125;SDS011;53956;52.442;13.284;2023-08-01T01:02:06;5.03;;;3.28;;
18125;SDS011;53956;52.442;13.284;2023-08-01T01:04:33;4.40;;;3.00;;
18125;SDS011;53956;52.442;13.284;2023-08-01T01:07:00;4.60;;;3.30;;
18125;SDS011;53956;52.442;13.284;2023-08-01T01:09:30;6.25;;;3.10;;
18125;SDS011;53956;52.442;13.284;2023-08-01T01:11:58;5.15;;;3.65;;
18125;SDS011;53956;52.442;13.284;2023-08-01T01:14:25;7.13;;;3.58;;
18125;SDS011;53956;52.442;13.284;2023-08-01T01:16:52;5.32;;;3.58;;
18125;SDS011;53956;52.442;13.284;2023-08-01T01:19:19;5.65;;;3.50;;
18125;SDS011;53956;52.442;13.284;2023-08-01T01:21:47;7.05;;;3.55;;
18125;SDS011;53956;52.442;13.284;2023-08-01T01:24:14;5.47;;;3.30;;
18125;SDS011;53956;52.442;13.284;2023-08-01T01:26:43;5.50;;;3.60;;
18125;SDS011;53956;52.442;13.284;2023-08-01T01:29:12;4.85;;;3.35;;
18125;SDS011;53956;52.442;13.284;2023-08-01T01:31:40;6.57;;;3.78;;
18125;SDS011;53956;52.442;13.284;2023-08-01T01:34:07;5.93;;;4.13;;
18125;SDS011;53956;52.442;13.284;2023-08-01T01:36:35;6.30;;;3.55;;
18125;SDS011;53956;52.442;13.284;2023-08-01T01:39:03;6.00;;;3.90;;
18125;SDS011;53956;52.442;13.284;2023-08-01T01:41:29;5.32;;;3.47;;
18125;SDS011;53956;52.442;13.284;2023-08-01T01:43:56;4.68;;;3.40;;
18125;SDS011;53956;52.442;13.284;2023-08-01T01:46:23;6.85;;;3.88;;
18125;SDS011;53956;52.442;13.284;2023-08-01T01:48:49;6.80;;;3.80;;
18125;SDS011;53956;52.442;13.284;2023-08-01T01:51:16;5.65;;;3.75;;
18125;SDS011;53956;52.442;13.284;2023-08-01T01:53:42;6.60;;;3.78;;
18125;SDS011;53956;52.442;13.284;2023-08-01T01:56:10;8.27;;;4.05;;
18125;SDS011;53956;52.442;13.284;2023-08-01T01:58:37;5.78;;;3.88;;
18125;SDS011;53956;52.442;13.284;2023-08-01T02:01:04;6.70;;;4.03;;
18125;SDS011;53956;52.442;13.284;2023-08-01T02:03:30;5.65;;;4.20;;
18125;SDS011;53956;52.442;13.284;2023-08-01T02:05:58;5.93;;;3.97;;
18125;SDS011;53956;52.442;13.284;2023-08-01T02:08:24;5.55;;;3.92;;
18125;SDS011;53956;52.442;13.284;2023-08-01T02:10:51;8.95;;;3.80;;
18125;SDS011;53956;52.442;13.284;2023-08-01T02:13:19;8.13;;;4.22;;
18125;SDS011;53956;52.442;13.284;2023-08-01T02:15:45;8.50;;;4.40;;
18125;SDS011;53956;52.442;13.284;2023-08-01T02:18:12;6.68;;;4.30;;
18125;SDS011;53956;52.442;13.284;2023-08-01T02:20:38;8.27;;;4.00;;
18125;SDS011;53956;52.442;13.284;2023-08-01T02:23:04;6.50;;;4.25;;
18125;SDS011;53956;52.442;13.284;2023-08-01T02:25:31;6.03;;;4.25;;
18125;SDS011;53956;52.442;13.284;2023-08-01T02:27:58;7.35;;;4.53;;
18125;SDS011;53956;52.442;13.284;2023-08-01T02:30:26;5.90;;;3.85;;
18125;SDS011;53956;52.442;13.284;2023-08-01T02:32:54;8.88;;;4.20;;
18125;SDS011;53956;52.442;13.284;2023-08-01T02:35:20;4.90;;;3.70;;
18125;SDS011;53956;52.442;13.284;2023-08-01T02:37:47;7.05;;;4.30;;
18125;SDS011;53956;52.442;13.284;2023-08-01T02:40:14;5.25;;;3.75;;
18125;SDS011;53956;52.442;13.284;2023-08-01T02:42:41;6.20;;;3.90;;
18125;SDS011;53956;52.442;13.284;2023-08-01T02:45:08;5.75;;;4.18;;
18125;SDS011;53956;52.442;13.284;2023-08-01T02:47:36;5.35;;;4.35;;
18125;SDS011;53956;52.442;13.284;2023-08-01T02:50:03;5.53;;;4.07;;
18125;SDS011;53956;52.442;13.284;2023-08-01T02:52:30;7.43;;;4.40;;
18125;SDS011;53956;52.442;13.284;2023-08-01T02:54:57;7.28;;;4.13;;
18125;SDS011;53956;52.442;13.284;2023-08-01T02:57:23;7.07;;;4.30;;
18125;SDS011;53956;52.442;13.284;2023-08-01T02:59:50;6.50;;;4.20;;
18125;SDS011;53956;52.442;13.284;2023-08-01T03:02:16;6.07;;;4.13;;
18125;SDS011;53956;52.442;13.284;2023-08-01T03:04:44;7.57;;;4.05;;
18125;SDS011;53956;52.442;13.284;2023-08-01T03:07:11;6.25;;;4.22;;
18125;SDS011;53956;52.442;13.284;2023-08-01T03:09:38;5.32;;;4.18;;
18125;SDS011;53956;52.442;13.284;2023-08-01T03:12:04;8.50;;;4.10;;
18125;SDS011;53956;52.442;13.284;2023-08-01T03:14:31;6.68;;;4.20;;
18125;SDS011;53956;52.442;13.284;2023-08-01T03:16:58;6.45;;;4.38;;
18125;SDS011;53956;52.442;13.284;2023-08-01T03:19:25;5.80;;;4.05;;
18125;SDS011;53956;52.442;13.284;2023-08-01T03:21:52;9.02;;;4.22;;
18125;SDS011;53956;52.442;13.284;2023-08-01T03:24:19;6.30;;;4.20;;
18125;SDS011;53956;52.442;13.284;2023-08-01T03:26:46;6.90;;;3.90;;
18125;SDS011;53956;52.442;13.284;2023-08-01T03:29:14;8.25;;;4.07;;
18125;SDS011;53956;52.442;13.284;2023-08-01T03:31:41;5.55;;;3.80;;
18125;SDS011;53956;52.442;13.284;2023-08-01T03:34:07;6.22;;;4.00;;
18125;SDS011;53956;52.442;13.284;2023-08-01T03:36:35;6.82;;;4.13;;
18125;SDS011;53956;52.442;13.284;2023-08-01T03:39:03;6.55;;;3.65;;
18125;SDS011;53956;52.442;13.284;2023-08-01T03:41:31;5.88;;;3.80;;
18125;SDS011;53956;52.442;13.284;2023-08-01T03:43:57;6.22;;;3.92;;
18125;SDS011;53956;52.442;13.284;2023-08-01T03:46:24;5.47;;;4.07;;
18125;SDS011;53956;52.442;13.284;2023-08-01T03:48:51;7.53;;;3.90;;
18125;SDS011;53956;52.442;13.284;2023-08-01T03:51:17;6.43;;;3.72;;
18125;SDS011;53956;52.442;13.284;2023-08-01T03:53:45;5.50;;;4.05;;
18125;SDS011;53956;52.442;13.284;2023-08-01T03:56:14;5.85;;;3.58;;
18125;SDS011;53956;52.442;13.284;2023-08-01T03:58:40;5.57;;;3.78;;
18125;SDS011;53956;52.442;13.284;2023-08-01T04:01:08;5.55;;;3.60;;
18125;SDS011;53956;52.442;13.284;2023-08-01T04:03:36;5.03;;;3.60;;
18125;SDS011;53956;52.442;13.284;2023-08-01T04:06:04;5.63;;;3.97;;
18125;SDS011;53956;52.442;13.284;2023-08-01T04:08:30;5.80;;;3.75;;
18125;SDS011;53956;52.442;13.284;2023-08-01T04:10:57;6.10;;;3.50;;
18125;SDS011;53956;52.442;13.284;2023-08-01T04:13:25;5.85;;;4.00;;
18125;SDS011;53956;52.442;13.284;2023-08-01T04:15:51;5.85;;;3.58;;
18125;SDS011;53956;52.442;13.284;2023-08-01T04:18:18;5.80;;;3.60;;
18125;SDS011;53956;52.442;13.284;2023-08-01T04:20:45;7.35;;;4.20;;
18125;SDS011;53956;52.442;13.284;2023-08-01T04:23:12;6.88;;;3.70;;
18125;SDS011;53956;52.442;13.284;2023-08-01T04:25:40;3.80;;;3.20;;
18125;SDS011;53956;52.442;13.284;2023-08-01T04:28:07;4.70;;;3.53;;
18125;SDS011;53956;52.442;13.284;2023-08-01T04:30:35;7.55;;;3.45;;
18125;SDS011;53956;52.442;13.284;2023-08-01T04:33:03;6.25;;;3.35;;
18125;SDS011;53956;52.442;13.284;2023-08-01T04:35:30;6.30;;;3.28;;
18125;SDS011;53956;52.442;13.284;2023-08-01T04:37:56;5.28;;;3.47;;
18125;SDS011;53956;52.442;13.284;2023-08-01T04:40:23;5.03;;;3.17;;
18125;SDS011;53956;52.442;13.284;2023-08-01T04:42:50;7.90;;;3.08;;
18125;SDS011;53956;52.442;13.284;2023-08-01T04:45:16;4.80;;;3.28;;
18125;SDS011;53956;52.442;13.284;2023-08-01T04:47:44;5.82;;;3.50;;
18125;SDS011;53956;52.442;13.284;2023-08-01T04:50:11;4.93;;;3.13;;
18125;SDS011;53956;52.442;13.284;2023-08-01T04:52:37;4.72;;;3.30;;
18125;SDS011;53956;52.442;13.284;2023-08-01T04:55:04;7.15;;;3.40;;
18125;SDS011;53956;52.442;13.284;2023-08-01T04:57:32;5.10;;;3.40;;
18125;SDS011;53956;52.442;13.284;2023-08-01T04:59:58;6.97;;;3.28;;
18125;SDS011;53956;52.442;13.284;2023-08-01T05:02:25;6.63;;;3.28;;
18125;SDS011;53956;52.442;13.284;2023-08-01T05:04:53;5.68;;;3.47;;
18125;SDS011;53956;52.442;13.284;2023-08-01T05:07:20;6.22;;;3.53;;
18125;SDS011;53956;52.442;13.284;2023-08-01T05:09:46;5.40;;;3.40;;
18125;SDS011;53956;52.442;13.284;2023-08-01T05:12:13;6.30;;;3.65;;
18125;SDS011;53956;52.442;13.284;2023-08-01T05:14:40;5.43;;;3.40;;
18125;SDS011;53956;52.442;13.284;2023-08-01T05:17:06;5.43;;;3.60;;
18125;SDS011;53956;52.442;13.284;2023-08-01T05:19:33;5.57;;;3.38;;
18125;SDS011;53956;52.442;13.284;2023-08-01T05:22:01;4.78;;;3.40;;
18125;SDS011;53956;52.442;13.284;2023-08-01T05:24:28;5.30;;;3.80;;
18125;SDS011;53956;52.442;13.284;2023-08-01T05:26:54;5.28;;;3.33;;
18125;SDS011;53956;52.442;13.284;2023-08-01T05:29:21;6.93;;;3.28;;
18125;SDS011;53956;52.442;13.284;2023-08-01T05:31:48;5.53;;;3.78;;
18125;SDS011;53956;52.442;13.284;2023-08-01T05:34:14;6.13;;;3.90;;
18125;SDS011;53956;52.442;13.284;2023-08-01T05:36:41;5.88;;;3.67;;
18125;SDS011;53956;52.442;13.284;2023-08-01T05:39:09;6.20;;;3.85;;
18125;SDS011;53956;52.442;13.284;2023-08-01T05:41:36;6.43;;;3.38;;
18125;SDS011;53956;52.442;13.284;2023-08-01T05:44:03;5.22;;;3.50;;
18125;SDS011;53956;52.442;13.284;2023-08-01T05:46:30;5.60;;;3.28;;
18125;SDS011;53956;52.442;13.284;2023-08-01T05:48:57;5.45;;;3.25;;
18125;SDS011;53956;52.442;13.284;2023-08-01T05:51:23;6.13;;;3.42;;
18125;SDS011;53956;52.442;13.284;2023-08-01T05:53:50;6.30;;;3.75;;
18125;SDS011;53956;52.442;13.284;2023-08-01T05:56:18;5.15;;;3.28;;
18125;SDS011;53956;52.442;13.284;2023-08-01T05:58:44;7.72;;;3.40;;
18125;SDS011;53956;52.442;13.284;2023-08-01T06:01:11;4.50;;;3.33;;
18125;SDS011;53956;52.442;13.284;2023-08-01T06:03:38;5.22;;;3.40;;
18125;SDS011;53956;52.442;13.284;2023-08-01T06:06:04;4.65;;;3.50;;
18125;SDS011;53956;52.442;13.284;2023-08-01T06:08:31;5.50;;;3.60;;
18125;SDS011;53956;52.442;13.284;2023-08-01T06:10:58;4.63;;;3.30;;
18125;SDS011;53956;52.442;13.284;2023-08-01T06:13:26;4.20;;;3.40;;
18125;SDS011;53956;52.442;13.284;2023-08-01T06:15:52;5.57;;;3.45;;
18125;SDS011;53956;52.442;13.284;2023-08-01T06:18:19;5.07;;;3.53;;
18125;SDS011;53956;52.442;13.284;2023-08-01T06:20:45;8.13;;;3.83;;
18125;SDS011;53956;52.442;13.284;2023-08-01T06:23:12;5.43;;;3.17;;
18125;SDS011;53956;52.442;13.284;2023-08-01T06:25:38;3.80;;;2.92;;
18125;SDS011;53956;52.442;13.284;2023-08-01T06:28:05;6.50;;;3.38;;
18125;SDS011;53956;52.442;13.284;2023-08-01T06:30:33;5.82;;;3.20;;
18125;SDS011;53956;52.442;13.284;2023-08-01T06:32:59;4.68;;;3.05;;
18125;SDS011;53956;52.442;13.284;2023-08-01T06:35:26;5.82;;;2.92;;
18125;SDS011;53956;52.442;13.284;2023-08-01T06:37:53;5.50;;;3.45;;
18125;SDS011;53956;52.442;13.284;2023-08-01T06:40:19;4.53;;;3.30;;
18125;SDS011;53956;52.442;13.284;2023-08-01T06:42:46;4.43;;;3.08;;
18125;SDS011;53956;52.442;13.284;2023-08-01T06:45:13;4.10;;;3.10;;
18125;SDS011;53956;52.442;13.284;2023-08-01T06:47:41;4.93;;;3.13;;
18125;SDS011;53956;52.442;13.284;2023-08-01T06:50:08;6.25;;;3.50;;
18125;SDS011;53956;52.442;13.284;2023-08-01T06:52:35;4.35;;;3.33;;
18125;SDS011;53956;52.442;13.284;2023-08-01T06:55:02;6.28;;;3.42;;
18125;SDS011;53956;52.442;13.284;2023-08-01T06:57:29;5.38;;;3.17;;
18125;SDS011;53956;52.442;13.284;2023-08-01T06:59:55;5.85;;;3.22;;
18125;SDS011;53956;52.442;13.284;2023-08-01T07:02:22;6.20;;;3.15;;
18125;SDS011;53956;52.442;13.284;2023-08-01T07:04:51;4.82;;;3.30;;
18125;SDS011;53956;52.442;13.284;2023-08-01T07:07:18;5.88;;;3.03;;
18125;SDS011;53956;52.442;13.284;2023-08-01T07:09:44;5.60;;;3.53;;
18125;SDS011;53956;52.442;13.284;2023-08-01T07:12:11;6.03;;;3.47;;
18125;SDS011;53956;52.442;13.284;2023-08-01T07:14:38;5.03;;;3.22;;
18125;SDS011;53956;52.442;13.284;2023-08-01T07:17:05;4.30;;;3.13;;
18125;SDS011;53956;52.442;13.284;2023-08-01T07:19:31;4.72;;;3.20;;
18125;SDS011;53956;52.442;13.284;2023-08-01T07:21:59;4.97;;;3.22;;
18125;SDS011;53956;52.442;13.284;2023-08-01T07:24:26;3.72;;;2.90;;
18125;SDS011;53956;52.442;13.284;2023-08-01T07:26:52;4.43;;;2.92;;
18125;SDS011;53956;52.442;13.284;2023-08-01T07:29:19;5.03;;;3.10;;
18125;SDS011;53956;52.442;13.284;2023-08-01T07:31:46;4.22;;;2.78;;
18125;SDS011;53956;52.442;13.284;2023-08-01T07:34:12;5.30;;;3.20;;
18125;SDS011;53956;52.442;13.284;2023-08-01T07:36:39;3.80;;;3.17;;
18125;SDS011;53956;52.442;13.284;2023-08-01T07:39:07;7.82;;;3.05;;
18125;SDS011;53956;52.442;13.284;2023-08-01T07:41:33;4.55;;;3.03;;
18125;SDS011;53956;52.442;13.284;2023-08-01T07:44:01;5.38;;;3.00;;
18125;SDS011;53956;52.442;13.284;2023-08-01T07:46:28;5.53;;;2.88;;
18125;SDS011;53956;52.442;13.284;2023-08-01T07:48:55;4.72;;;2.60;;
18125;SDS011;53956;52.442;13.284;2023-08-01T07:51:21;3.70;;;2.70;;
18125;SDS011;53956;52.442;13.284;2023-08-01T07:53:48;6.93;;;2.90;;
18125;SDS011;53956;52.442;13.284;2023-08-01T07:56:18;5.78;;;3.10;;
18125;SDS011;53956;52.442;13.284;2023-08-01T07:58:45;2.95;;;2.40;;
18125;SDS011;53956;52.442;13.284;2023-08-01T08:01:12;4.10;;;2.80;;
18125;SDS011;53956;52.442;13.284;2023-08-01T08:03:38;4.18;;;2.47;;
18125;SDS011;53956;52.442;13.284;2023-08-01T08:06:05;4.93;;;2.72;;
18125;SDS011;53956;52.442;13.284;2023-08-01T08:08:32;4.13;;;2.58;;
18125;SDS011;53956;52.442;13.284;2023-08-01T08:10:59;3.00;;;2.50;;
18125;SDS011;53956;52.442;13.284;2023-08-01T08:13:27;2.42;;;2.20;;
18125;SDS011;53956;52.442;13.284;2023-08-01T08:15:55;3.58;;;2.10;;
18125;SDS011;53956;52.442;13.284;2023-08-01T08:18:21;3.88;;;2.38;;
18125;SDS011;53956;52.442;13.284;2023-08-01T08:20:48;3.65;;;2.42;;
18125;SDS011;53956;52.442;13.284;2023-08-01T08:23:15;3.35;;;2.10;;
18125;SDS011;53956;52.442;13.284;2023-08-01T08:25:41;3.50;;;2.20;;
18125;SDS011;53956;52.442;13.284;2023-08-01T08:28:09;5.20;;;2.50;;
18125;SDS011;53956;52.442;13.284;2023-08-01T08:30:38;3.03;;;2.10;;
18125;SDS011;53956;52.442;13.284;2023-08-01T08:33:05;3.10;;;2.28;;
18125;SDS011;53956;52.442;13.284;2023-08-01T08:35:32;3.88;;;2.20;;
18125;SDS011;53956;52.442;13.284;2023-08-01T08:37:59;2.50;;;1.77;;
18125;SDS011;53956;52.442;13.284;2023-08-01T08:40:28;3.45;;;2.00;;
18125;SDS011;53956;52.442;13.284;2023-08-01T08:42:54;3.17;;;1.92;;
18125;SDS011;53956;52.442;13.284;2023-08-01T08:45:23;3.42;;;1.83;;
18125;SDS011;53956;52.442;13.284;2023-08-01T08:47:53;4.05;;;1.70;;
18125;SDS011;53956;52.442;13.284;2023-08-01T08:50:22;4.50;;;1.73;;
18125;SDS011;53956;52.442;13.284;2023-08-01T08:52:50;3.05;;;1.80;;
18125;SDS011;53956;52.442;13.284;2023-08-01T08:55:17;2.15;;;1.73;;
18125;SDS011;53956;52.442;13.284;2023-08-01T08:57:47;3.88;;;1.90;;
18125;SDS011;53956;52.442;13.284;2023-08-01T09:00:16;3.28;;;1.80;;
18125;SDS011;53956;52.442;13.284;2023-08-01T09:02:43;1.67;;;1.58;;
18125;SDS011;53956;52.442;13.284;2023-08-01T09:05:12;1.70;;;1.50;;
18125;SDS011;53956;52.442;13.284;2023-08-01T09:07:39;1.70;;;1.27;;
18125;SDS011;53956;52.442;13.284;2023-08-01T09:10:08;1.80;;;1.30;;
18125;SDS011;53956;52.442;13.284;2023-08-01T09:12:35;1.25;;;1.10;;
18125;SDS011;53956;52.442;13.284;2023-08-01T09:15:02;2.83;;;1.33;;
18125;SDS011;53956;52.442;13.284;2023-08-01T09:17:29;1.50;;;1.40;;
18125;SDS011;53956;52.442;13.284;2023-08-01T09:19:57;2.70;;;1.30;;
18125;SDS011;53956;52.442;13.284;2023-08-01T09:22:31;2.55;;;1.30;;
18125;SDS011;53956;52.442;13.284;2023-08-01T09:25:07;1.95;;;1.40;;
18125;SDS011;53956;52.442;13.284;2023-08-01T09:27:34;1.52;;;1.40;;
18125;SDS011;53956;52.442;13.284;2023-08-01T09:30:07;2.90;;;1.60;;
18125;SDS011;53956;52.442;13.284;2023-08-01T09:32:36;1.52;;;1.40;;
18125;SDS011;53956;52.442;13.284;2023-08-01T09:35:03;2.47;;;1.40;;
18125;SDS011;53956;52.442;13.284;2023-08-01T09:37:39;3.60;;;1.20;;
18125;SDS011;53956;52.442;13.284;2023-08-01T09:40:07;2.33;;;1.20;;
18125;SDS011;53956;52.442;13.284;2023-08-01T09:42:37;1.55;;;1.17;;
18125;SDS011;53956;52.442;13.284;2023-08-01T09:45:06;1.40;;;1.02;;
18125;SDS011;53956;52.442;13.284;2023-08-01T09:47:37;1.00;;;0.90;;
18125;SDS011;53956;52.442;13.284;2023-08-01T09:50:04;1.40;;;1.15;;
18125;SDS011;53956;52.442;13.284;2023-08-01T09:52:31;1.05;;;0.90;;
18125;SDS011;53956;52.442;13.284;2023-08-01T09:55:00;1.20;;;1.10;;
18125;SDS011;53956;52.442;13.284;2023-08-01T09:57:27;4.07;;;0.98;;
18125;SDS011;53956;52.442;13.284;2023-08-01T09:59:55;1.02;;;0.93;;
18125;SDS011;53956;52.442;13.284;2023-08-01T10:02:23;1.70;;;1.20;;
18125;SDS011;53956;52.442;13.284;2023-08-01T10:04:51;1.55;;;1.10;;
18125;SDS011;53956;52.442;13.284;2023-08-01T10:07:20;2.10;;;1.10;;
18125;SDS011;53956;52.442;13.284;2023-08-01T10:09:51;1.25;;;1.00;;
18125;SDS011;53956;52.442;13.284;2023-08-01T10:12:21;1.88;;;1.13;;
18125;SDS011;53956;52.442;13.284;2023-08-01T10:14:49;1.98;;;1.20;;
18125;SDS011;53956;52.442;13.284;2023-08-01T10:17:16;1.63;;;1.08;;
18125;SDS011;53956;52.442;13.284;2023-08-01T10:19:43;1.38;;;0.93;;
18125;SDS011;53956;52.442;13.284;2023-08-01T10:22:10;1.85;;;1.05;;
18125;SDS011;53956;52.442;13.284;2023-08-01T10:24:37;1.35;;;1.02;;
18125;SDS011;53956;52.442;13.284;2023-08-01T10:27:11;1.08;;;0.98;;
18125;SDS011;53956;52.442;13.284;2023-08-01T10:29:40;1.58;;;1.10;;
18125;SDS011;53956;52.442;13.284;2023-08-01T10:32:07;3.22;;;0.85;;
18125;SDS011;53956;52.442;13.284;2023-08-01T10:34:35;1.50;;;0.90;;
18125;SDS011;53956;52.442;13.284;2023-08-01T10:37:02;2.05;;;0.90;;
18125;SDS011;53956;52.442;13.284;2023-08-01T10:39:29;1.33;;;0.90;;
18125;SDS011;53956;52.442;13.284;2023-08-01T10:41:59;3.72;;;1.00;;
18125;SDS011;53956;52.442;13.284;2023-08-01T10:44:26;2.65;;;1.17;;
18125;SDS011;53956;52.442;13.284;2023-08-01T10:46:58;2.25;;;0.80;;
18125;SDS011;53956;52.442;13.284;2023-08-01T10:49:33;3.10;;;0.85;;
18125;SDS011;53956;52.442;13.284;2023-08-01T10:52:02;2.63;;;1.00;;
18125;SDS011;53956;52.442;13.284;2023-08-01T10:54:29;2.60;;;0.90;;
18125;SDS011;53956;52.442;13.284;2023-08-01T10:56:59;1.30;;;1.00;;
18125;SDS011;53956;52.442;13.284;2023-08-01T10:59:27;2.08;;;1.00;;
18125;SDS011;53956;52.442;13.284;2023-08-01T11:01:58;1.48;;;1.13;;
18125;SDS011;53956;52.442;13.284;2023-08-01T11:04:26;2.88;;;0.90;;
18125;SDS011;53956;52.442;13.284;2023-08-01T11:06:53;2.08;;;0.90;;
18125;SDS011;53956;52.442;13.284;2023-08-01T11:09:21;2.80;;;0.93;;
18125;SDS011;53956;52.442;13.284;2023-08-01T11:11:51;2.13;;;1.00;;
18125;SDS011;53956;52.442;13.284;2023-08-01T11:14:19;3.60;;;1.17;;
18125;SDS011;53956;52.442;13.284;2023-08-01T11:16:47;1.20;;;1.10;;
18125;SDS011;53956;52.442;13.284;2023-08-01T11:19:19;1.10;;;1.00;;
18125;SDS011;53956;52.442;13.284;2023-08-01T11:21:46;2.85;;;1.20;;
18125;SDS011;53956;52.442;13.284;2023-08-01T11:24:13;3.85;;;1.70;;
18125;SDS011;53956;52.442;13.284;2023-08-01T11:26:41;3.72;;;1.70;;
18125;SDS011;53956;52.442;13.284;2023-08-01T11:29:09;4.35;;;1.85;;
18125;SDS011;53956;52.442;13.284;2023-08-01T11:31:36;4.85;;;1.80;;
18125;SDS011;53956;52.442;13.284;2023-08-01T11:34:03;5.10;;;2.42;;
18125;SDS011;53956;52.442;13.284;2023-08-01T11:36:31;4.82;;;2.08;;
18125;SDS011;53956;52.442;13.284;2023-08-01T11:38:58;4.15;;;2.20;;
18125;SDS011;53956;52.442;13.284;2023-08-01T11:41:25;4.57;;;2.33;;
18125;SDS011;53956;52.442;13.284;2023-08-01T11:43:53;5.95;;;2.83;;
18125;SDS011;53956;52.442;13.284;2023-08-01T11:46:21;3.40;;;2.58;;
18125;SDS011;53956;52.442;13.284;2023-08-01T11:48:48;5.22;;;3.00;;
18125;SDS011;53956;52.442;13.284;2023-08-01T11:51:15;3.75;;;2.50;;
18125;SDS011;53956;52.442;13.284;2023-08-01T11:53:43;4.70;;;2.80;;
18125;SDS011;53956;52.442;13.284;2023-08-01T11:56:19;5.28;;;2.35;;
18125;SDS011;53956;52.442;13.284;2023-08-01T11:58:46;3.00;;;2.63;;
18125;SDS011;53956;52.442;13.284;2023-08-01T12:01:13;4.63;;;2.78;;
18125;SDS011;53956;52.442;13.284;2023-08-01T12:03:43;6.05;;;3.08;;
18125;SDS011;53956;52.442;13.284;2023-08-01T12:06:10;9.25;;;3.25;;
18125;SDS011;53956;52.442;13.284;2023-08-01T12:08:38;4.20;;;2.92;;
18125;SDS011;53956;52.442;13.284;2023-08-01T12:11:16;4.68;;;3.17;;
18125;SDS011;53956;52.442;13.284;2023-08-01T12:13:44;6.40;;;2.85;;
18125;SDS011;53956;52.442;13.284;2023-08-01T12:16:10;7.03;;;3.40;;
18125;SDS011;53956;52.442;13.284;2023-08-01T12:18:40;5.80;;;3.00;;
18125;SDS011;53956;52.442;13.284;2023-08-01T12:21:08;6.05;;;3.25;;
18125;SDS011;53956;52.442;13.284;2023-08-01T12:23:35;6.30;;;3.40;;
18125;SDS011;53956;52.442;13.284;2023-08-01T12:26:02;6.45;;;3.00;;
18125;SDS011;53956;52.442;13.284;2023-08-01T12:28:30;4.93;;;3.30;;
18125;SDS011;53956;52.442;13.284;2023-08-01T12:30:57;7.20;;;3.58;;
18125;SDS011;53956;52.442;13.284;2023-08-01T12:33:24;4.40;;;3.10;;
18125;SDS011;53956;52.442;13.284;2023-08-01T12:35:51;7.47;;;3.30;;
18125;SDS011;53956;52.442;13.284;2023-08-01T12:38:17;6.03;;;3.03;;
18125;SDS011;53956;52.442;13.284;2023-08-01T12:40:44;6.70;;;3.30;;
18125;SDS011;53956;52.442;13.284;2023-08-01T12:43:12;4.63;;;3.05;;
18125;SDS011;53956;52.442;13.284;2023-08-01T12:45:40;5.40;;;3.15;;
18125;SDS011;53956;52.442;13.284;2023-08-01T12:48:06;5.45;;;2.95;;
18125;SDS011;53956;52.442;13.284;2023-08-01T12:50:33;5.53;;;3.30;;
18125;SDS011;53956;52.442;13.284;2023-08-01T12:52:59;6.53;;;2.97;;
18125;SDS011;53956;52.442;13.284;2023-08-01T12:55:26;5.63;;;3.10;;
18125;SDS011;53956;52.442;13.284;2023-08-01T12:57:53;4.35;;;2.90;;
18125;SDS011;53956;52.442;13.284;2023-08-01T13:00:19;6.63;;;3.25;;
18125;SDS011;53956;52.442;13.284;2023-08-01T13:02:47;4.97;;;2.83;;
18125;SDS011;53956;52.442;13.284;2023-08-01T13:05:14;5.05;;;3.13;;
18125;SDS011;53956;52.442;13.284;2023-08-01T13:07:41;7.15;;;3.30;;
18125;SDS011;53956;52.442;13.284;2023-08-01T13:10:07;6.45;;;3.25;;
18125;SDS011;53956;52.442;13.284;2023-08-01T13:12:35;7.18;;;2.97;;
18125;SDS011;53956;52.442;13.284;2023-08-01T13:15:01;4.60;;;2.90;;
18125;SDS011;53956;52.442;13.284;2023-08-01T13:17:29;4.60;;;3.30;;
18125;SDS011;53956;52.442;13.284;2023-08-01T13:19:57;8.80;;;3.40;;
18125;SDS011;53956;52.442;13.284;2023-08-01T13:22:24;4.18;;;3.03;;
18125;SDS011;53956;52.442;13.284;2023-08-01T13:24:50;6.95;;;3.50;;
18125;SDS011;53956;52.442;13.284;2023-08-01T13:27:17;6.20;;;3.15;;
18125;SDS011;53956;52.442;13.284;2023-08-01T13:29:44;6.43;;;3.28;;
18125;SDS011;53956;52.442;13.284;2023-08-01T13:32:10;6.20;;;2.88;;
18125;SDS011;53956;52.442;13.284;2023-08-01T13:34:37;6.47;;;3.10;;
18125;SDS011;53956;52.442;13.284;2023-08-01T13:37:05;5.20;;;2.95;;
18125;SDS011;53956;52.442;13.284;2023-08-01T13:39:34;6.20;;;3.03;;
18125;SDS011;53956;52.442;13.284;2023-08-01T13:42:00;8.82;;;3.38;;
18125;SDS011;53956;52.442;13.284;2023-08-01T13:44:27;5.40;;;2.88;;
18125;SDS011;53956;52.442;13.284;2023-08-01T13:46:54;5.68;;;2.80;;
18125;SDS011;53956;52.442;13.284;2023-08-01T13:49:21;3.97;;;2.90;;
18125;SDS011;53956;52.442;13.284;2023-08-01T13:51:47;4.50;;;2.97;;
18125;SDS011;53956;52.442;13.284;2023-08-01T13:54:15;5.57;;;2.92;;
18125;SDS011;53956;52.442;13.284;2023-08-01T13:56:42;7.53;;;3.22;;
18125;SDS011;53956;52.442;13.284;2023-08-01T13:59:08;7.55;;;3.45;;
18125;SDS011;53956;52.442;13.284;2023-08-01T14:01:35;4.50;;;3.03;;
18125;SDS011;53956;52.442;13.284;2023-08-01T14:04:03;7.03;;;3.22;;
18125;SDS011;53956;52.442;13.284;2023-08-01T14:06:29;5.22;;;3.60;;
18125;SDS011;53956;52.442;13.284;2023-08-01T14:08:56;5.43;;;3.17;;
18125;SDS011;53956;52.442;13.284;2023-08-01T14:11:24;6.80;;;3.20;;
18125;SDS011;53956;52.442;13.284;2023-08-01T14:13:51;4.72;;;3.08;;
18125;SDS011;53956;52.442;13.284;2023-08-01T14:16:18;3.72;;;2.95;;
18125;SDS011;53956;52.442;13.284;2023-08-01T14:18:44;4.97;;;2.90;;
18125;SDS011;53956;52.442;13.284;2023-08-01T14:21:11;5.20;;;2.88;;
18125;SDS011;53956;52.442;13.284;2023-08-01T14:23:38;4.40;;;2.85;;
18125;SDS011;53956;52.442;13.284;2023-08-01T14:26:06;8.10;;;2.88;;
18125;SDS011;53956;52.442;13.284;2023-08-01T14:28:34;5.13;;;2.72;;
18125;SDS011;53956;52.442;13.284;2023-08-01T14:31:01;6.72;;;3.33;;
18125;SDS011;53956;52.442;13.284;2023-08-01T14:33:29;5.88;;;2.70;;